createdAt,value
2018-03-08T00:00:30.605Z,70.30
2018-03-08T00:01:30.598Z,81.10
2018-03-08T00:02:30.589Z,75.40
2018-03-08T00:03:30.582Z,78.70
2018-03-08T00:04:30.578Z,81.70
2018-03-08T00:05:30.569Z,78.60
2018-03-08T00:06:30.561Z,77.80
2018-03-08T00:07:30.553Z,72.30
2018-03-08T00:08:30.547Z,80.60
2018-03-08T00:09:30.537Z,73.50
2018-03-08T00:10:30.529Z,74.10
2018-03-08T00:11:30.523Z,71.60
2018-03-08T00:12:30.511Z,69.20
2018-03-08T00:13:30.503Z,69.50
2018-03-08T00:14:30.495Z,68.90
2018-03-08T00:15:30.489Z,73.60
2018-03-08T00:16:30.484Z,70.60
2018-03-08T00:17:30.476Z,70.10
2018-03-08T00:18:30.467Z,64.50
2018-03-08T00:19:30.460Z,69.10
2018-03-08T00:20:30.453Z,64.40
2018-03-08T00:21:30.444Z,68.20
2018-03-08T00:22:30.437Z,65.50
2018-03-08T00:23:30.428Z,65.70
2018-03-08T00:24:30.421Z,68.50
2018-03-08T00:25:30.412Z,63.40
2018-03-08T00:26:30.404Z,65.40
2018-03-08T00:27:30.396Z,59.80
2018-03-08T00:28:30.392Z,63.40
2018-03-08T00:29:30.382Z,58.90
2018-03-08T00:30:30.373Z,61.50
2018-03-08T00:31:30.366Z,63.00
2018-03-08T00:32:30.359Z,61.30
2018-03-08T00:33:30.351Z,63.90
2018-03-08T00:34:30.343Z,56.80
2018-03-08T00:35:30.377Z,57.80
2018-03-08T00:36:30.326Z,64.20
2018-03-08T00:37:30.319Z,56.80
2018-03-08T00:38:30.309Z,55.90
2018-03-08T00:39:30.302Z,57.60
2018-03-08T00:40:30.296Z,54.20
2018-03-08T00:41:30.286Z,51.60
2018-03-08T00:42:30.278Z,53.00
2018-03-08T00:43:30.271Z,53.90
2018-03-08T00:44:30.264Z,55.10
2018-03-08T00:45:30.256Z,53.60
2018-03-08T00:46:30.248Z,56.00
2018-03-08T00:47:30.242Z,55.90
2018-03-08T00:48:30.232Z,51.50
2018-03-08T00:49:30.222Z,51.70
2018-03-08T00:50:30.217Z,55.70
2018-03-08T00:51:30.207Z,52.90
2018-03-08T00:52:30.201Z,54.10
2018-03-08T00:53:30.193Z,51.60
2018-03-08T00:54:30.185Z,51.20
2018-03-08T00:55:30.176Z,48.30
2018-03-08T00:56:30.170Z,48.30
2018-03-08T00:57:30.160Z,49.80
2018-03-08T00:58:30.152Z,48.50
2018-03-08T00:59:30.144Z,50.60
2018-03-08T01:00:30.182Z,46.60
2018-03-08T01:01:30.127Z,50.70
2018-03-08T01:02:30.119Z,50.30
2018-03-08T01:03:30.112Z,48.40
2018-03-08T01:04:30.103Z,47.20
2018-03-08T01:05:30.097Z,49.20
2018-03-08T01:06:30.088Z,49.80
2018-03-08T01:07:30.082Z,46.60
2018-03-08T01:08:30.073Z,48.60
2018-03-08T01:09:30.064Z,43.60
2018-03-08T01:10:30.057Z,46.90
2018-03-08T01:11:30.049Z,47.00
2018-03-08T01:12:30.041Z,43.00
2018-03-08T01:13:30.032Z,44.70
2018-03-08T01:14:30.026Z,41.80
2018-03-08T01:15:30.016Z,46.50
2018-03-08T01:16:30.007Z,46.00
2018-03-08T01:17:29.998Z,47.30
2018-03-08T01:18:29.990Z,44.10
2018-03-08T01:19:29.982Z,42.00
2018-03-08T01:20:29.975Z,39.00
2018-03-08T01:21:29.972Z,40.30
2018-03-08T01:22:29.958Z,41.90
2018-03-08T01:23:29.954Z,45.40
2018-03-08T01:24:29.943Z,38.00
2018-03-08T01:25:29.934Z,39.60
2018-03-08T01:26:29.927Z,37.90
2018-03-08T01:27:29.919Z,40.10
2018-03-08T01:28:29.910Z,40.10
2018-03-08T01:29:29.901Z,44.80
2018-03-08T01:30:29.893Z,37.20
2018-03-08T01:31:29.885Z,36.10
2018-03-08T01:32:29.876Z,34.00
2018-03-08T01:33:29.868Z,32.90
2018-03-08T01:34:29.860Z,37.90
2018-03-08T01:35:29.852Z,32.60
2018-03-08T01:36:29.844Z,34.20
2018-03-08T01:37:29.840Z,33.20
2018-03-08T01:38:29.827Z,31.80
2018-03-08T01:39:29.820Z,32.80
2018-03-08T01:40:29.813Z,33.40
2018-03-08T01:41:29.803Z,36.30
2018-03-08T01:42:29.800Z,34.60
2018-03-08T01:43:29.789Z,34.20
2018-03-08T01:44:29.780Z,32.90
2018-03-08T01:45:29.772Z,34.70
2018-03-08T01:46:29.764Z,33.70
2018-03-08T01:47:29.756Z,36.40
2018-03-08T01:48:29.746Z,32.30
2018-03-08T01:49:29.740Z,34.30
2018-03-08T01:50:29.731Z,35.20
2018-03-08T01:51:29.721Z,32.40
2018-03-08T01:52:29.716Z,33.30
2018-03-08T01:53:29.708Z,32.70
2018-03-08T01:54:29.698Z,32.10
2018-03-08T01:55:29.690Z,27.20
2018-03-08T01:56:29.682Z,32.10
2018-03-08T01:57:29.673Z,29.50
2018-03-08T01:58:29.664Z,28.60
2018-03-08T01:59:29.657Z,32.20
2018-03-08T02:00:29.649Z,29.00
2018-03-08T02:01:29.640Z,29.10
2018-03-08T02:02:29.632Z,25.80
2018-03-08T02:03:29.625Z,29.10
2018-03-08T02:04:29.617Z,30.10
2018-03-08T02:05:29.609Z,27.50
2018-03-08T02:06:29.602Z,25.00
2018-03-08T02:07:29.593Z,23.70
2018-03-08T02:08:29.585Z,28.40
2018-03-08T02:09:29.577Z,23.30
2018-03-08T02:10:29.570Z,24.50
2018-03-08T02:11:29.559Z,23.90
2018-03-08T02:12:29.551Z,30.40
2018-03-08T02:13:29.541Z,28.00
2018-03-08T02:14:29.534Z,22.90
2018-03-08T02:15:29.526Z,25.10
2018-03-08T02:16:29.518Z,27.00
2018-03-08T02:17:29.509Z,24.90
2018-03-08T02:18:29.502Z,24.80
2018-03-08T02:19:29.495Z,20.30
2018-03-08T02:20:29.487Z,21.90
2018-03-08T02:21:29.480Z,24.00
2018-03-08T02:22:29.471Z,28.00
2018-03-08T02:23:29.463Z,25.30
2018-03-08T02:24:29.455Z,24.70
2018-03-08T02:25:29.447Z,23.50
2018-03-08T02:26:29.437Z,25.00
2018-03-08T02:27:29.430Z,26.00
2018-03-08T02:28:29.424Z,26.90
2018-03-08T02:29:29.413Z,26.50
2018-03-08T02:30:29.406Z,22.10
2018-03-08T02:31:29.399Z,26.10
2018-03-08T02:32:29.388Z,22.30
2018-03-08T02:33:29.380Z,24.90
2018-03-08T02:34:29.373Z,23.80
2018-03-08T02:35:29.364Z,26.60
2018-03-08T02:36:29.359Z,22.90
2018-03-08T02:37:29.347Z,23.60
2018-03-08T02:38:29.340Z,23.70
2018-03-08T02:39:29.332Z,23.00
2018-03-08T02:40:29.325Z,21.30
2018-03-08T02:41:29.315Z,24.50
2018-03-08T02:42:29.308Z,23.80
2018-03-08T02:43:29.299Z,27.90
2018-03-08T02:44:29.288Z,25.10
2018-03-08T02:45:29.280Z,22.00
2018-03-08T02:46:29.274Z,25.10
2018-03-08T02:47:29.266Z,22.70
2018-03-08T02:48:29.255Z,24.50
2018-03-08T02:49:29.247Z,18.20
2018-03-08T02:50:29.239Z,26.40
2018-03-08T02:51:29.232Z,23.90
2018-03-08T02:52:29.224Z,22.10
2018-03-08T02:53:29.214Z,25.10
2018-03-08T02:54:29.204Z,23.70
2018-03-08T02:55:29.204Z,27.10
2018-03-08T02:56:29.189Z,20.00
2018-03-08T02:57:29.179Z,22.40
2018-03-08T02:58:29.171Z,22.40
2018-03-08T02:59:29.161Z,23.00
2018-03-08T03:00:29.156Z,23.40
2018-03-08T03:01:29.147Z,25.60
2018-03-08T03:02:29.141Z,25.20
2018-03-08T03:03:29.130Z,24.90
2018-03-08T03:04:29.122Z,23.30
2018-03-08T03:05:29.112Z,21.90
2018-03-08T03:06:29.104Z,27.00
2018-03-08T03:07:29.096Z,23.70
2018-03-08T03:08:29.086Z,28.70
2018-03-08T03:09:29.076Z,27.40
2018-03-08T03:10:29.069Z,22.80
2018-03-08T03:11:29.059Z,26.90
2018-03-08T03:12:29.051Z,27.10
2018-03-08T03:13:29.043Z,27.90
2018-03-08T03:14:29.039Z,25.30
2018-03-08T03:15:29.026Z,27.10
2018-03-08T03:16:29.017Z,24.30
2018-03-08T03:17:29.008Z,22.80
2018-03-08T03:18:28.999Z,23.70
2018-03-08T03:19:28.990Z,22.90
2018-03-08T03:20:28.982Z,23.70
2018-03-08T03:21:28.972Z,24.00
2018-03-08T03:22:28.963Z,21.30
2018-03-08T03:23:28.955Z,24.20
2018-03-08T03:24:28.944Z,26.00
2018-03-08T03:25:28.935Z,24.80
2018-03-08T03:26:28.926Z,21.30
2018-03-08T03:27:28.918Z,21.90
2018-03-08T03:28:28.909Z,24.70
2018-03-08T03:29:28.900Z,24.90
2018-03-08T03:30:28.891Z,23.60
2018-03-08T03:31:28.884Z,18.00
2018-03-08T03:32:28.876Z,22.00
2018-03-08T03:33:28.865Z,22.20
2018-03-08T03:34:28.858Z,23.30
2018-03-08T03:35:28.847Z,21.90
2018-03-08T03:36:28.839Z,24.40
2018-03-08T03:37:28.828Z,18.80
2018-03-08T03:38:28.819Z,22.80
2018-03-08T03:39:28.810Z,21.60
2018-03-08T03:40:28.800Z,23.70
2018-03-08T03:41:28.792Z,30.20
2018-03-08T03:42:28.784Z,25.00
2018-03-08T03:43:28.772Z,24.10
2018-03-08T03:44:28.765Z,23.50
2018-03-08T03:45:28.753Z,20.90
2018-03-08T03:46:28.749Z,21.20
2018-03-08T03:47:28.737Z,22.00
2018-03-08T03:48:28.727Z,20.00
2018-03-08T03:49:28.714Z,20.20
2018-03-08T03:50:28.706Z,21.90
2018-03-08T03:51:28.697Z,18.30
2018-03-08T03:52:28.686Z,19.50
2018-03-08T03:53:28.680Z,20.70
2018-03-08T03:54:28.668Z,22.60
2018-03-08T03:55:28.658Z,19.70
2018-03-08T03:56:28.653Z,19.60
2018-03-08T03:57:28.643Z,18.30
2018-03-08T03:58:28.632Z,25.40
2018-03-08T03:59:28.624Z,21.50
2018-03-08T04:00:28.611Z,17.90
2018-03-08T04:01:28.601Z,18.80
2018-03-08T04:02:28.593Z,17.70
2018-03-08T04:03:28.583Z,23.80
2018-03-08T04:04:28.606Z,23.90
2018-03-08T04:05:28.569Z,19.10
2018-03-08T04:06:28.559Z,22.20
2018-03-08T04:07:28.547Z,17.80
2018-03-08T04:08:28.538Z,19.00
2018-03-08T04:09:28.527Z,19.10
2018-03-08T04:10:28.519Z,22.30
2018-03-08T04:11:28.508Z,20.10
2018-03-08T04:12:28.497Z,19.00
2018-03-08T04:13:28.485Z,21.70
2018-03-08T04:14:28.478Z,18.70
2018-03-08T04:15:28.468Z,21.70
2018-03-08T04:16:28.459Z,20.10
2018-03-08T04:17:28.448Z,24.90
2018-03-08T04:18:28.439Z,19.70
2018-03-08T04:19:28.430Z,17.90
2018-03-08T04:20:28.423Z,18.80
2018-03-08T04:21:28.413Z,22.90
2018-03-08T04:22:28.403Z,19.60
2018-03-08T04:23:28.393Z,21.10
2018-03-08T04:24:28.385Z,22.90
2018-03-08T04:25:28.373Z,23.00
2018-03-08T04:26:28.365Z,24.60
2018-03-08T04:27:28.354Z,22.80
2018-03-08T04:28:28.342Z,20.10
2018-03-08T04:29:28.332Z,16.80
2018-03-08T04:30:28.322Z,17.20
2018-03-08T04:31:28.317Z,22.60
2018-03-08T04:32:28.304Z,23.60
2018-03-08T04:33:28.292Z,18.30
2018-03-08T04:34:28.285Z,15.30
2018-03-08T04:35:28.274Z,20.80
2018-03-08T04:36:28.267Z,16.50
2018-03-08T04:37:28.256Z,16.20
2018-03-08T04:38:28.247Z,19.80
2018-03-08T04:39:28.238Z,15.90
2018-03-08T04:40:28.229Z,18.30
2018-03-08T04:41:28.219Z,20.70
2018-03-08T04:42:28.208Z,15.20
2018-03-08T04:43:28.200Z,20.90
2018-03-08T04:44:28.186Z,20.70
2018-03-08T04:45:28.176Z,16.40
2018-03-08T04:46:28.166Z,16.20
2018-03-08T04:47:28.156Z,17.70
2018-03-08T04:48:28.147Z,18.90
2018-03-08T04:49:28.139Z,17.90
2018-03-08T04:50:28.127Z,18.60
2018-03-08T04:51:28.117Z,20.20
2018-03-08T04:52:28.110Z,18.10
2018-03-08T04:53:28.100Z,15.60
2018-03-08T04:54:28.090Z,20.00
2018-03-08T04:55:28.081Z,23.40
2018-03-08T04:56:28.072Z,19.80
2018-03-08T04:57:28.060Z,19.80
2018-03-08T04:58:28.056Z,17.50
2018-03-08T04:59:28.042Z,20.60
2018-03-08T05:00:28.029Z,21.30
2018-03-08T05:01:28.019Z,18.30
2018-03-08T05:02:28.009Z,19.20
2018-03-08T05:03:27.999Z,20.70
2018-03-08T05:04:27.992Z,18.00
2018-03-08T05:05:27.981Z,15.80
2018-03-08T05:06:27.973Z,18.50
2018-03-08T05:07:27.962Z,16.30
2018-03-08T05:08:27.949Z,17.20
2018-03-08T05:09:27.941Z,15.90
2018-03-08T05:10:27.929Z,15.40
2018-03-08T05:11:27.920Z,17.30
2018-03-08T05:12:27.911Z,16.50
2018-03-08T05:13:27.898Z,15.30
2018-03-08T05:14:27.889Z,16.30
2018-03-08T05:15:27.879Z,15.20
2018-03-08T05:16:27.872Z,21.20
2018-03-08T05:17:27.861Z,18.10
2018-03-08T05:18:27.852Z,15.60
2018-03-08T05:19:27.842Z,23.80
2018-03-08T05:20:27.833Z,15.00
2018-03-08T05:21:27.823Z,16.00
2018-03-08T05:22:27.812Z,20.80
2018-03-08T05:23:27.804Z,15.70
2018-03-08T05:24:27.793Z,15.30
2018-03-08T05:25:27.777Z,19.30
2018-03-08T05:26:27.768Z,19.50
2018-03-08T05:27:27.759Z,18.00
2018-03-08T05:28:27.749Z,19.20
2018-03-08T05:29:27.742Z,16.50
2018-03-08T05:30:27.729Z,16.20
2018-03-08T05:31:27.719Z,19.30
2018-03-08T05:32:27.712Z,17.00
2018-03-08T05:33:27.700Z,17.70
2018-03-08T05:34:27.692Z,17.40
2018-03-08T05:35:27.681Z,18.80
2018-03-08T05:36:27.670Z,20.20
2018-03-08T05:37:27.659Z,21.70
2018-03-08T05:38:27.650Z,18.70
2018-03-08T05:39:27.639Z,17.60
2018-03-08T05:40:27.628Z,23.80
2018-03-08T05:41:27.617Z,19.40
2018-03-08T05:42:27.607Z,19.40
2018-03-08T05:43:27.599Z,16.60
2018-03-08T05:44:27.592Z,17.40
2018-03-08T05:45:27.575Z,16.70
2018-03-08T05:46:27.568Z,19.80
2018-03-08T05:47:27.555Z,18.50
2018-03-08T05:48:27.548Z,16.80
2018-03-08T05:49:27.538Z,19.40
2018-03-08T05:50:27.528Z,16.90
2018-03-08T05:51:27.516Z,16.60
2018-03-08T05:52:27.507Z,19.90
2018-03-08T05:53:27.496Z,22.30
2018-03-08T05:54:27.511Z,19.40
2018-03-08T05:55:27.475Z,18.40
2018-03-08T05:56:27.463Z,18.20
2018-03-08T05:57:27.453Z,22.20
2018-03-08T05:58:27.441Z,19.70
2018-03-08T05:59:27.432Z,19.70
2018-03-08T06:00:27.421Z,19.30
2018-03-08T06:01:27.413Z,17.30
2018-03-08T06:02:27.401Z,16.60
2018-03-08T06:03:27.390Z,18.80
2018-03-08T06:04:27.382Z,16.70
2018-03-08T06:05:27.372Z,19.80
2018-03-08T06:06:27.362Z,18.90
2018-03-08T06:07:27.353Z,18.60
2018-03-08T06:08:27.339Z,16.50
2018-03-08T06:09:27.328Z,18.50
2018-03-08T06:10:27.319Z,18.20
2018-03-08T06:11:27.310Z,17.00
2018-03-08T06:12:27.302Z,15.20
2018-03-08T06:13:27.290Z,15.60
2018-03-08T06:14:27.280Z,15.50
2018-03-08T06:15:27.272Z,15.60
2018-03-08T06:16:27.261Z,20.10
2018-03-08T06:17:27.252Z,19.40
2018-03-08T06:18:27.240Z,15.90
2018-03-08T06:19:27.230Z,15.70
2018-03-08T06:20:27.219Z,16.20
2018-03-08T06:21:27.211Z,15.90
2018-03-08T06:22:27.203Z,16.30
2018-03-08T06:23:27.188Z,21.60
2018-03-08T06:24:27.178Z,17.50
2018-03-08T06:25:27.167Z,16.80
2018-03-08T06:26:27.157Z,15.70
2018-03-08T06:27:27.148Z,16.70
2018-03-08T06:28:27.141Z,17.30
2018-03-08T06:29:27.131Z,17.30
2018-03-08T06:30:27.121Z,17.20
2018-03-08T06:31:27.110Z,21.00
2018-03-08T06:32:27.102Z,16.50
2018-03-08T06:33:27.110Z,18.90
2018-03-08T06:34:27.080Z,16.50
2018-03-08T06:35:27.071Z,18.00
2018-03-08T06:36:27.058Z,19.10
2018-03-08T06:37:27.048Z,18.70
2018-03-08T06:38:27.037Z,19.30
2018-03-08T06:39:27.034Z,19.70
2018-03-08T06:40:27.018Z,18.00
2018-03-08T06:41:27.009Z,15.90
2018-03-08T06:42:26.997Z,16.70
2018-03-08T06:43:26.988Z,17.80
2018-03-08T06:44:26.985Z,16.00
2018-03-08T06:45:26.971Z,16.50
2018-03-08T06:46:26.961Z,19.50
2018-03-08T06:47:26.953Z,16.50
2018-03-08T06:48:26.944Z,17.00
2018-03-08T06:49:26.934Z,18.70
2018-03-08T06:50:26.926Z,16.50
2018-03-08T06:51:26.919Z,15.80
2018-03-08T06:52:26.908Z,16.90
2018-03-08T06:53:26.898Z,16.40
2018-03-08T06:54:26.890Z,15.80
2018-03-08T06:55:26.887Z,16.90
2018-03-08T06:56:26.876Z,16.40
2018-03-08T06:57:26.869Z,17.40
2018-03-08T06:58:26.861Z,16.50
2018-03-08T06:59:26.855Z,18.50
2018-03-08T07:00:26.853Z,18.50
2018-03-08T07:01:26.845Z,18.30
2018-03-08T07:02:26.840Z,16.50
2018-03-08T07:03:26.834Z,18.90
2018-03-08T07:04:26.834Z,16.30
2018-03-08T07:05:26.828Z,18.20
2018-03-08T07:06:26.819Z,20.10
2018-03-08T07:07:26.813Z,17.30
2018-03-08T07:08:26.807Z,18.10
2018-03-08T07:09:26.800Z,16.70
2018-03-08T07:10:26.796Z,15.70
2018-03-08T07:11:26.792Z,17.90
2018-03-08T07:12:26.789Z,16.10
2018-03-08T07:13:26.784Z,17.10
2018-03-08T07:14:26.780Z,16.40
2018-03-08T07:15:26.777Z,16.80
2018-03-08T07:16:26.776Z,16.30
2018-03-08T07:17:26.772Z,15.70
2018-03-08T07:18:26.770Z,16.10
2018-03-08T07:19:26.769Z,17.00
2018-03-08T07:20:26.765Z,16.40
2018-03-08T07:21:26.763Z,16.30
2018-03-08T07:22:26.764Z,17.30
2018-03-08T07:23:26.760Z,18.40
2018-03-08T07:24:26.751Z,18.20
2018-03-08T07:25:26.758Z,19.20
2018-03-08T07:26:26.747Z,17.40
2018-03-08T07:27:26.745Z,17.00
2018-03-08T07:28:26.755Z,17.50
2018-03-08T07:29:26.749Z,17.00
2018-03-08T07:30:26.739Z,17.90
2018-03-08T07:31:26.738Z,19.60
2018-03-08T07:32:26.739Z,18.50
2018-03-08T07:33:26.737Z,18.80
2018-03-08T07:34:26.736Z,19.80
2018-03-08T07:35:26.739Z,18.10
2018-03-08T07:36:26.733Z,17.70
2018-03-08T07:37:26.733Z,17.30
2018-03-08T07:38:26.736Z,18.40
2018-03-08T07:39:26.731Z,18.00
2018-03-08T07:40:26.726Z,17.50
2018-03-08T07:41:26.725Z,18.00
2018-03-08T07:42:26.724Z,19.00
2018-03-08T07:43:26.727Z,19.50
2018-03-08T07:44:26.726Z,19.90
2018-03-08T07:45:26.721Z,21.20
2018-03-08T07:46:26.723Z,18.90
2018-03-08T07:47:26.719Z,18.80
2018-03-08T07:48:26.721Z,19.00
2018-03-08T07:49:26.723Z,19.90
2018-03-08T07:50:26.718Z,19.00
2018-03-08T07:51:26.717Z,18.60
2018-03-08T07:52:26.719Z,19.20
2018-03-08T07:53:26.717Z,20.80
2018-03-08T07:54:26.712Z,20.90
2018-03-08T07:55:26.711Z,20.60
2018-03-08T07:56:26.707Z,20.60
2018-03-08T07:57:26.704Z,19.90
2018-03-08T07:58:26.708Z,19.60
2018-03-08T07:59:26.700Z,19.50
2018-03-08T08:00:26.698Z,21.60
2018-03-08T08:01:26.694Z,22.20
2018-03-08T08:02:26.691Z,21.70
2018-03-08T08:03:26.691Z,18.90
2018-03-08T08:04:26.691Z,18.20
2018-03-08T08:05:26.687Z,21.00
2018-03-08T08:06:26.685Z,20.40
2018-03-08T08:07:26.681Z,18.00
2018-03-08T08:08:26.678Z,18.20
2018-03-08T08:09:26.676Z,18.60
2018-03-08T08:10:26.673Z,19.00
2018-03-08T08:11:26.669Z,17.90
2018-03-08T08:12:26.663Z,19.20
2018-03-08T08:13:26.660Z,18.50
2018-03-08T08:14:26.658Z,18.10
2018-03-08T08:15:26.654Z,19.10
2018-03-08T08:16:26.656Z,19.60
2018-03-08T08:17:26.653Z,17.80
2018-03-08T08:18:26.650Z,19.40
2018-03-08T08:19:26.649Z,19.90
2018-03-08T08:20:26.645Z,19.70
2018-03-08T08:21:26.643Z,18.10
2018-03-08T08:22:26.642Z,18.90
2018-03-08T08:23:26.640Z,20.70
2018-03-08T08:24:26.643Z,21.20
2018-03-08T08:25:26.640Z,21.20
2018-03-08T08:26:26.639Z,20.40
2018-03-08T08:27:26.638Z,21.80
2018-03-08T08:28:26.641Z,20.40
2018-03-08T08:29:26.642Z,20.80
2018-03-08T08:30:26.639Z,21.80
2018-03-08T08:31:26.637Z,22.00
2018-03-08T08:32:26.637Z,19.80
2018-03-08T08:33:26.635Z,22.20
2018-03-08T08:34:26.632Z,19.50
2018-03-08T08:35:26.632Z,20.80
2018-03-08T08:36:26.626Z,20.90
2018-03-08T08:37:26.624Z,21.60
2018-03-08T08:38:26.619Z,21.90
2018-03-08T08:39:26.617Z,21.00
2018-03-08T08:40:26.637Z,21.00
2018-03-08T08:41:26.611Z,21.30
2018-03-08T08:42:26.608Z,20.40
2018-03-08T08:43:26.604Z,21.90
2018-03-08T08:44:26.607Z,20.10
2018-03-08T08:45:26.598Z,20.30
2018-03-08T08:46:26.594Z,19.70
2018-03-08T08:47:26.591Z,20.10
2018-03-08T08:48:26.588Z,19.40
2018-03-08T08:49:26.584Z,19.70
2018-03-08T08:50:26.579Z,18.00
2018-03-08T08:51:26.574Z,20.40
2018-03-08T08:52:26.570Z,19.80
2018-03-08T08:53:26.562Z,21.00
2018-03-08T08:54:26.560Z,22.50
2018-03-08T08:55:26.556Z,21.40
2018-03-08T08:56:26.552Z,21.70
2018-03-08T08:57:26.547Z,23.10
2018-03-08T08:58:26.544Z,22.40
2018-03-08T08:59:26.540Z,19.90
2018-03-08T09:00:26.539Z,19.90
2018-03-08T09:01:26.535Z,21.20
2018-03-08T09:02:26.531Z,20.10
2018-03-08T09:03:26.527Z,20.20
2018-03-08T09:04:26.524Z,19.90
2018-03-08T09:05:26.518Z,21.60
2018-03-08T09:06:26.514Z,21.00
2018-03-08T09:07:26.510Z,19.80
2018-03-08T09:08:26.503Z,19.50
2018-03-08T09:09:26.497Z,21.20
2018-03-08T09:10:26.492Z,19.20
2018-03-08T09:11:26.488Z,21.50
2018-03-08T09:12:26.484Z,20.50
2018-03-08T09:13:26.480Z,20.90
2018-03-08T09:14:26.476Z,19.60
2018-03-08T09:15:26.469Z,20.50
2018-03-08T09:16:26.467Z,19.50
2018-03-08T09:17:26.461Z,20.80
2018-03-08T09:18:26.455Z,20.60
2018-03-08T09:19:26.449Z,20.80
2018-03-08T09:20:26.441Z,21.00
2018-03-08T09:21:26.439Z,22.80
2018-03-08T09:22:26.429Z,19.30
2018-03-08T09:23:26.424Z,20.30
2018-03-08T09:24:26.422Z,19.20
2018-03-08T09:25:26.415Z,18.40
2018-03-08T09:26:26.410Z,19.80
2018-03-08T09:27:26.404Z,19.20
2018-03-08T09:28:26.398Z,21.50
2018-03-08T09:29:26.392Z,18.60
2018-03-08T09:30:26.389Z,18.00
2018-03-08T09:31:26.383Z,19.30
2018-03-08T09:32:26.374Z,19.20
2018-03-08T09:33:26.367Z,18.00
2018-03-08T09:34:26.362Z,18.80
2018-03-08T09:35:26.357Z,20.30
2018-03-08T09:36:26.353Z,18.60
2018-03-08T09:37:26.348Z,19.60
2018-03-08T09:38:26.344Z,19.60
2018-03-08T09:39:26.339Z,17.80
2018-03-08T09:40:26.336Z,19.00
2018-03-08T09:41:26.331Z,20.00
2018-03-08T09:42:26.327Z,20.70
2018-03-08T09:43:26.324Z,17.90
2018-03-08T09:44:26.320Z,17.40
2018-03-08T09:45:26.316Z,18.00
2018-03-08T09:46:26.312Z,17.60
2018-03-08T09:47:26.309Z,17.70
2018-03-08T09:48:26.304Z,18.10
2018-03-08T09:49:26.300Z,19.20
2018-03-08T09:50:26.299Z,18.60
2018-03-08T09:51:26.298Z,18.20
2018-03-08T09:52:26.296Z,18.80
2018-03-08T09:53:26.295Z,17.50
2018-03-08T09:54:26.297Z,16.80
2018-03-08T09:55:26.294Z,19.40
2018-03-08T09:56:26.293Z,18.60
2018-03-08T09:57:26.292Z,17.80
2018-03-08T09:58:26.292Z,19.00
2018-03-08T09:59:26.289Z,18.30
2018-03-08T10:00:26.288Z,18.20
2018-03-08T10:01:26.285Z,18.70
2018-03-08T10:02:26.285Z,17.90
2018-03-08T10:03:26.286Z,17.90
2018-03-08T10:04:26.277Z,19.30
2018-03-08T10:05:26.275Z,19.30
2018-03-08T10:06:26.272Z,17.60
2018-03-08T10:07:26.269Z,18.40
2018-03-08T10:08:26.267Z,17.60
2018-03-08T10:09:26.269Z,18.80
2018-03-08T10:10:26.258Z,17.40
2018-03-08T10:11:26.255Z,17.20
2018-03-08T10:12:26.256Z,18.30
2018-03-08T10:13:26.253Z,18.50
2018-03-08T10:14:26.249Z,16.90
2018-03-08T10:15:26.246Z,17.40
2018-03-08T10:16:26.242Z,16.20
2018-03-08T10:17:26.239Z,15.80
2018-03-08T10:18:26.235Z,16.70
2018-03-08T10:19:26.230Z,15.70
2018-03-08T10:20:26.224Z,14.70
2018-03-08T10:21:44.375Z,16.30
2018-03-08T10:22:26.215Z,16.50
2018-03-08T10:23:26.211Z,16.10
2018-03-08T10:24:26.210Z,15.80
2018-03-08T10:25:26.204Z,16.70
2018-03-08T10:26:26.201Z,16.30
2018-03-08T10:27:26.196Z,16.10
2018-03-08T10:28:26.187Z,16.20
2018-03-08T10:29:26.184Z,15.80
2018-03-08T10:30:26.180Z,16.30
2018-03-08T10:31:26.176Z,16.10
2018-03-08T10:32:26.170Z,18.50
2018-03-08T10:33:26.164Z,15.50
2018-03-08T10:34:26.160Z,16.70
2018-03-08T10:35:26.154Z,16.00
2018-03-08T10:36:26.156Z,17.30
2018-03-08T10:37:26.147Z,15.80
2018-03-08T10:38:26.145Z,15.40
2018-03-08T10:43:26.147Z,14.70
2018-03-08T10:44:26.108Z,14.30
2018-03-08T10:45:26.106Z,14.20
2018-03-08T10:46:26.100Z,13.90
2018-03-08T10:47:26.091Z,14.10
2018-03-08T10:48:26.087Z,14.50
2018-03-08T10:49:26.085Z,13.70
2018-03-08T10:50:26.082Z,14.50
2018-03-08T10:51:26.072Z,13.40
2018-03-08T10:52:26.070Z,13.40
2018-03-08T10:53:26.065Z,13.10
2018-03-08T10:54:26.062Z,12.80
2018-03-08T10:55:26.056Z,13.70
2018-03-08T10:56:26.052Z,14.10
2018-03-08T10:57:26.047Z,14.20
2018-03-08T10:58:26.044Z,12.70
2018-03-08T10:59:26.047Z,12.50
2018-03-08T11:00:26.032Z,14.20
2018-03-08T11:01:26.028Z,13.50
2018-03-08T11:02:26.024Z,14.60
2018-03-08T11:03:26.022Z,13.20
2018-03-08T11:04:26.609Z,12.40
2018-03-08T11:05:26.012Z,13.80
2018-03-08T11:06:26.020Z,14.10
2018-03-08T11:07:26.004Z,13.80
2018-03-08T11:08:26.005Z,13.90
2018-03-08T11:09:25.999Z,12.90
2018-03-08T11:10:25.999Z,14.90
2018-03-08T11:11:25.994Z,13.40
2018-03-08T11:12:25.989Z,13.70
2018-03-08T11:13:25.983Z,13.10
2018-03-08T11:14:25.978Z,13.10
2018-03-08T11:15:25.975Z,12.80
2018-03-08T11:16:25.968Z,12.40
2018-03-08T11:17:25.964Z,13.60
2018-03-08T11:18:25.960Z,13.40
2018-03-08T11:19:25.955Z,13.20
2018-03-08T11:20:25.950Z,12.60
2018-03-08T11:21:25.946Z,12.60
2018-03-08T11:22:25.941Z,12.20
2018-03-08T11:23:25.941Z,12.80
2018-03-08T11:24:25.936Z,12.30
2018-03-08T11:25:25.931Z,12.10
2018-03-08T11:26:25.925Z,14.10
2018-03-08T11:27:25.941Z,12.10
2018-03-08T11:28:25.918Z,12.10
2018-03-08T11:29:25.911Z,12.30
2018-03-08T11:30:25.910Z,12.10
2018-03-08T11:31:25.903Z,13.40
2018-03-08T11:32:25.895Z,11.60
2018-03-08T11:33:25.889Z,12.50
2018-03-08T11:34:25.884Z,12.10
2018-03-08T11:35:25.880Z,14.00
2018-03-08T11:36:25.875Z,12.20
2018-03-08T11:37:25.870Z,12.70
2018-03-08T11:38:25.864Z,10.80
2018-03-08T11:39:25.864Z,11.80
2018-03-08T11:40:25.858Z,10.80
2018-03-08T11:41:25.850Z,12.70
2018-03-08T11:42:25.846Z,11.10
2018-03-08T11:43:25.858Z,11.40
2018-03-08T11:44:25.835Z,11.80
2018-03-08T11:45:25.829Z,10.90
2018-03-08T11:47:25.825Z,11.40
2018-03-08T11:48:25.811Z,12.50
2018-03-08T11:49:25.807Z,12.80
2018-03-08T11:50:25.799Z,11.60
2018-03-08T11:51:25.794Z,11.50
2018-03-08T11:52:25.789Z,10.90
2018-03-08T11:53:25.783Z,11.00
2018-03-08T11:54:25.778Z,12.70
2018-03-08T11:55:25.772Z,12.60
2018-03-08T11:56:25.770Z,12.50
2018-03-08T11:57:25.764Z,11.50
2018-03-08T11:58:25.759Z,11.60
2018-03-08T11:59:25.753Z,12.80
2018-03-08T12:00:25.747Z,11.20
2018-03-08T12:01:25.744Z,11.60
2018-03-08T12:02:25.736Z,10.80
2018-03-08T12:03:25.731Z,11.30
2018-03-08T12:04:25.724Z,12.50
2018-03-08T12:05:25.717Z,11.70
2018-03-08T12:06:25.715Z,13.60
2018-03-08T12:07:25.711Z,11.60
2018-03-08T12:08:25.703Z,12.60
2018-03-08T12:09:25.697Z,13.00
2018-03-08T12:10:25.692Z,13.60
2018-03-08T12:11:25.687Z,14.10
2018-03-08T12:12:25.685Z,14.80
2018-03-08T12:13:25.678Z,13.70
2018-03-08T12:14:25.673Z,13.50
2018-03-08T12:15:25.670Z,15.70
2018-03-08T12:16:25.661Z,14.70
2018-03-08T12:17:25.663Z,15.40
2018-03-08T12:18:25.654Z,16.80
2018-03-08T12:19:25.645Z,16.30
2018-03-08T12:20:25.637Z,15.70
2018-03-08T12:21:25.630Z,18.10
2018-03-08T12:22:25.623Z,16.30
2018-03-08T12:23:25.618Z,16.90
2018-03-08T12:24:25.613Z,17.20
2018-03-08T12:25:25.606Z,17.20
2018-03-08T12:26:25.599Z,15.70
2018-03-08T12:27:25.593Z,16.40
2018-03-08T12:28:25.592Z,16.50
2018-03-08T12:29:25.594Z,16.10
2018-03-08T12:30:25.576Z,16.70
2018-03-08T12:31:25.570Z,15.30
2018-03-08T12:32:25.561Z,15.30
2018-03-08T12:33:25.558Z,16.30
2018-03-08T12:34:25.547Z,15.10
2018-03-08T12:35:25.539Z,14.80
2018-03-08T12:36:25.538Z,16.50
2018-03-08T12:37:25.529Z,17.00
2018-03-08T12:38:25.522Z,16.80
2018-03-08T12:39:25.517Z,15.40
2018-03-08T12:40:25.511Z,15.10
2018-03-08T12:41:25.503Z,13.90
2018-03-08T12:42:25.496Z,15.10
2018-03-08T12:43:25.489Z,16.80
2018-03-08T12:44:25.479Z,15.40
2018-03-08T12:45:25.471Z,16.60
2018-03-08T12:46:25.492Z,15.40
2018-03-08T12:47:25.458Z,15.70
2018-03-08T12:48:25.451Z,14.60
2018-03-08T12:49:25.443Z,15.60
2018-03-08T12:50:25.437Z,14.50
2018-03-08T12:51:25.430Z,14.00
2018-03-08T12:52:25.431Z,13.70
2018-03-08T12:53:25.418Z,15.20
2018-03-08T12:54:25.415Z,19.80
2018-03-08T12:55:25.404Z,15.30
2018-03-08T12:56:25.399Z,15.10
2018-03-08T12:57:25.389Z,15.00